createdAt,value
2023-02-17T00:01:17.616Z,13.90
2023-02-17T00:04:22.963Z,14.52
2023-02-17T00:07:32.037Z,15.60
2023-02-17T00:10:37.311Z,14.13
2023-02-17T00:13:43.271Z,11.35
2023-02-17T00:16:51.447Z,12.57
2023-02-17T00:19:57.222Z,15.55
2023-02-17T00:23:02.328Z,15.60
2023-02-17T00:26:08.278Z,15.52
2023-02-17T00:29:14.041Z,13.38
2023-02-17T00:32:22.214Z,15.02
2023-02-17T00:35:28.347Z,14.40
2023-02-17T00:38:34.067Z,14.48
2023-02-17T00:41:39.261Z,14.25
2023-02-17T00:44:44.837Z,15.43
2023-02-17T00:47:54.352Z,12.57
2023-02-17T00:51:01.344Z,13.32
2023-02-17T00:54:07.068Z,15.35
2023-02-17T00:57:12.760Z,13.07
2023-02-17T01:00:19.098Z,14.15
2023-02-17T01:03:28.062Z,16.73
2023-02-17T01:06:34.374Z,14.35
2023-02-17T01:09:39.791Z,15.27
2023-02-17T01:12:45.153Z,14.35
2023-02-17T01:15:51.865Z,14.75
2023-02-17T01:18:59.865Z,17.30
2023-02-17T01:22:05.924Z,14.43
2023-02-17T01:25:11.817Z,14.23
2023-02-17T01:28:18.856Z,12.27
2023-02-17T01:31:27.338Z,14.95
2023-02-17T01:34:35.701Z,15.52
2023-02-17T01:37:40.993Z,16.15
2023-02-17T01:40:50.028Z,14.55
2023-02-17T01:44:09.219Z,15.80
2023-02-17T01:47:15.932Z,16.17
2023-02-17T01:50:25.958Z,17.77
2023-02-17T01:53:35.823Z,17.02
2023-02-17T01:56:43.343Z,15.50
2023-02-17T01:59:48.774Z,14.68
2023-02-17T02:02:54.906Z,18.17
2023-02-17T02:06:03.502Z,16.63
2023-02-17T02:09:12.541Z,15.35
2023-02-17T02:12:20.475Z,17.30
2023-02-17T02:15:27.485Z,17.45
2023-02-17T02:18:41.129Z,13.88
2023-02-17T02:22:01.526Z,15.07
2023-02-17T02:25:15.389Z,19.83
2023-02-17T02:28:26.287Z,17.58
2023-02-17T02:31:40.921Z,18.38
2023-02-17T02:34:50.463Z,16.60
2023-02-17T02:37:58.873Z,14.63
2023-02-17T02:41:07.327Z,16.65
2023-02-17T02:44:14.310Z,15.93
2023-02-17T02:47:34.641Z,15.02
2023-02-17T02:50:49.833Z,17.05
2023-02-17T02:54:09.989Z,12.82
2023-02-17T02:57:25.842Z,19.10
2023-02-17T03:00:35.437Z,15.13
2023-02-17T03:03:45.108Z,13.70
2023-02-17T03:06:56.839Z,12.65
2023-02-17T03:10:02.986Z,14.95
2023-02-17T03:13:08.577Z,14.70
2023-02-17T03:16:15.900Z,12.63
2023-02-17T03:19:23.524Z,12.43
2023-02-17T03:22:33.912Z,16.02
2023-02-17T03:25:39.396Z,11.70
2023-02-17T03:28:46.109Z,12.32
2023-02-17T03:31:51.245Z,15.73
2023-02-17T03:34:57.377Z,12.70
2023-02-17T03:38:05.513Z,15.30
2023-02-17T03:44:16.056Z,12.77
2023-02-17T03:47:21.369Z,15.02
2023-02-17T03:50:26.912Z,13.52
2023-02-17T03:53:34.683Z,12.15
2023-02-17T03:56:40.004Z,12.45
2023-02-17T03:59:45.198Z,13.05
2023-02-17T04:02:50.491Z,12.98
2023-02-17T04:05:55.904Z,11.88
2023-02-17T04:09:04.076Z,13.45
2023-02-17T04:12:09.309Z,16.45
2023-02-17T04:15:14.995Z,14.35
2023-02-17T04:18:21.123Z,16.67
2023-02-17T04:21:26.798Z,15.43
2023-02-17T04:24:34.668Z,17.17
2023-02-17T04:27:40.280Z,15.68
2023-02-17T04:30:46.737Z,19.55
2023-02-17T04:33:52.215Z,15.50
2023-02-17T04:36:58.204Z,15.60
2023-02-17T04:40:10.599Z,17.42
2023-02-17T04:43:15.972Z,18.02
2023-02-17T04:46:21.405Z,15.45
2023-02-17T04:49:26.955Z,15.48
2023-02-17T04:52:32.330Z,15.65
2023-02-17T04:55:40.981Z,16.17
2023-02-17T04:58:46.449Z,14.90
2023-02-17T05:01:51.771Z,16.88
2023-02-17T05:04:57.337Z,17.55
2023-02-17T05:08:02.861Z,14.43
2023-02-17T05:11:10.697Z,14.18
2023-02-17T05:14:16.225Z,18.17
2023-02-17T05:17:21.733Z,15.52
2023-02-17T05:20:27.167Z,16.42
2023-02-17T05:23:32.625Z,18.35
2023-02-17T05:26:40.790Z,18.95
2023-02-17T05:32:51.448Z,22.55
2023-02-17T05:35:57.502Z,22.23
2023-02-17T05:39:02.900Z,25.45
2023-02-17T05:42:11.064Z,19.08
2023-02-17T05:45:16.314Z,22.30
2023-02-17T05:48:21.887Z,20.45
2023-02-17T05:51:27.432Z,18.50
2023-02-17T05:54:32.725Z,19.45
2023-02-17T05:57:40.912Z,18.88
2023-02-17T06:00:46.445Z,20.77
2023-02-17T06:03:52.158Z,17.40
2023-02-17T06:06:57.703Z,19.20
2023-02-17T06:10:03.079Z,16.70
2023-02-17T06:13:11.953Z,17.40
2023-02-17T06:16:17.325Z,20.60
2023-02-17T06:19:22.503Z,16.60
2023-02-17T06:22:28.057Z,17.13
2023-02-17T06:25:33.383Z,18.05
2023-02-17T06:28:41.182Z,19.58
2023-02-17T06:31:47.063Z,20.70
2023-02-17T06:34:52.620Z,25.42
2023-02-17T06:37:57.992Z,23.52
2023-02-17T06:41:03.564Z,27.30
2023-02-17T06:44:11.633Z,20.70
2023-02-17T06:47:17.126Z,25.00
2023-02-17T06:50:22.632Z,26.45
2023-02-17T06:53:28.133Z,26.45
2023-02-17T06:56:33.507Z,24.10
2023-02-17T06:59:41.634Z,25.45
2023-02-17T07:02:47.355Z,22.90
2023-02-17T07:05:56.678Z,22.60
2023-02-17T07:09:01.908Z,19.63
2023-02-17T07:12:07.179Z,21.27
2023-02-17T07:15:15.330Z,22.40
2023-02-17T07:18:20.640Z,20.63
2023-02-17T07:21:26.648Z,23.08
2023-02-17T07:24:31.940Z,23.95
2023-02-17T07:27:38.224Z,18.85
2023-02-17T07:30:46.747Z,17.23
2023-02-17T07:33:52.595Z,20.55
2023-02-17T07:36:57.811Z,18.17
2023-02-17T07:40:04.430Z,18.65
2023-02-17T07:43:09.829Z,20.08
2023-02-17T07:46:17.904Z,19.83
2023-02-17T07:49:23.519Z,19.58
2023-02-17T07:52:29.221Z,16.40
2023-02-17T07:55:34.595Z,23.23
2023-02-17T07:58:41.084Z,18.67
2023-02-17T08:01:49.027Z,18.20
2023-02-17T08:04:55.240Z,22.83
2023-02-17T08:08:13.028Z,20.42
2023-02-17T08:11:31.636Z,19.33
2023-02-17T08:17:45.702Z,20.63
2023-02-17T08:20:51.371Z,20.80
2023-02-17T08:23:56.932Z,22.23
2023-02-17T08:27:02.726Z,18.58
2023-02-17T08:30:08.825Z,17.75
2023-02-17T08:33:19.112Z,16.92
2023-02-17T08:36:27.168Z,17.88
2023-02-17T08:39:32.529Z,17.10
2023-02-17T08:42:39.138Z,15.68
2023-02-17T08:45:44.820Z,18.83
2023-02-17T08:48:53.073Z,15.50
2023-02-17T08:51:59.002Z,18.25
2023-02-17T08:55:04.252Z,18.15
2023-02-17T08:58:09.778Z,15.95
2023-02-17T09:01:15.586Z,17.08
2023-02-17T09:04:23.566Z,19.20
2023-02-17T09:07:29.182Z,17.75
2023-02-17T09:10:34.829Z,21.33
2023-02-17T09:13:40.685Z,18.77
2023-02-17T09:16:46.308Z,21.70
2023-02-17T09:19:55.021Z,17.27
2023-02-17T09:23:01.019Z,18.52
2023-02-17T09:26:07.951Z,16.27
2023-02-17T09:29:14.473Z,14.65
2023-02-17T09:32:19.929Z,16.15
2023-02-17T09:35:28.300Z,15.63
2023-02-17T09:38:34.040Z,17.02
2023-02-17T09:41:41.243Z,14.98
2023-02-17T09:44:47.989Z,17.08
2023-02-17T09:47:55.303Z,18.33
2023-02-17T09:51:03.832Z,20.15
2023-02-17T09:54:11.777Z,19.35
2023-02-17T09:57:21.025Z,20.00
2023-02-17T10:00:28.121Z,17.75
2023-02-17T10:03:35.934Z,18.97
2023-02-17T10:06:46.997Z,19.23
2023-02-17T10:09:53.685Z,17.98
2023-02-17T10:13:00.543Z,20.70
2023-02-17T10:16:08.634Z,20.95
2023-02-17T10:19:17.153Z,21.10
2023-02-17T10:22:26.654Z,21.27
2023-02-17T10:25:42.549Z,22.40
2023-02-17T10:28:52.933Z,21.17
2023-02-17T10:32:06.321Z,19.33
2023-02-17T10:35:18.090Z,20.50
2023-02-17T10:38:36.644Z,23.77
2023-02-17T10:41:43.399Z,22.25
2023-02-17T10:44:49.084Z,21.33
2023-02-17T10:47:57.720Z,20.70
2023-02-17T10:51:03.906Z,24.13
2023-02-17T10:54:26.383Z,23.55
2023-02-17T10:57:33.376Z,23.58
2023-02-17T11:00:38.788Z,23.77
2023-02-17T11:03:44.495Z,26.35
2023-02-17T11:06:52.094Z,22.85
2023-02-17T11:10:03.332Z,23.08
2023-02-17T11:13:22.567Z,26.52
2023-02-17T11:16:29.729Z,26.90
2023-02-17T11:19:36.648Z,28.67
2023-02-17T11:22:45.716Z,28.60
2023-02-17T11:26:01.312Z,28.90
2023-02-17T11:29:13.779Z,29.63
2023-02-17T11:32:20.225Z,27.13
2023-02-17T11:35:27.599Z,26.40
2023-02-17T11:38:37.337Z,22.33
2023-02-17T11:41:45.687Z,32.67
2023-02-17T11:44:51.382Z,24.52
2023-02-17T11:48:05.483Z,25.05
2023-02-17T11:51:13.584Z,26.60
2023-02-17T11:57:36.766Z,28.77
2023-02-17T12:00:45.962Z,30.55
2023-02-17T12:04:14.165Z,30.95
2023-02-17T12:10:28.501Z,28.35
2023-02-17T12:13:42.120Z,28.38
2023-02-17T12:16:50.811Z,32.63
2023-02-17T12:20:01.406Z,31.13
2023-02-17T12:23:13.514Z,28.67
2023-02-17T12:26:23.568Z,32.80
2023-02-17T12:29:41.595Z,31.70
2023-02-17T12:32:54.460Z,32.15
2023-02-17T12:36:01.053Z,30.27
2023-02-17T12:39:13.445Z,33.75
2023-02-17T12:42:22.385Z,39.90
2023-02-17T12:45:33.735Z,33.95
2023-02-17T12:48:41.341Z,35.30
2023-02-17T12:51:48.729Z,38.28
2023-02-17T12:54:57.235Z,36.63
2023-02-17T12:58:04.614Z,37.95
2023-02-17T13:01:14.585Z,34.58
2023-02-17T13:04:21.257Z,36.47
2023-02-17T13:07:29.960Z,36.33
2023-02-17T13:10:37.124Z,39.00
2023-02-17T13:13:43.063Z,36.42
2023-02-17T13:16:50.939Z,32.60
2023-02-17T13:20:11.562Z,29.08
2023-02-17T13:23:17.828Z,30.83
2023-02-17T13:26:32.000Z,34.25
2023-02-17T13:29:37.963Z,32.47
2023-02-17T13:32:46.070Z,33.78
2023-02-17T13:35:52.187Z,28.85
2023-02-17T13:39:00.836Z,28.75
2023-02-17T13:42:07.455Z,29.70
2023-02-17T13:45:17.730Z,30.17
2023-02-17T13:48:29.720Z,36.13
2023-02-17T13:51:36.703Z,33.53
2023-02-17T13:54:44.013Z,30.05
2023-02-17T13:57:49.787Z,32.00
2023-02-17T14:00:56.209Z,33.33
2023-02-17T14:04:05.243Z,33.60
2023-02-17T14:07:10.900Z,37.83
2023-02-17T14:10:19.963Z,35.72
2023-02-17T14:13:25.840Z,31.88
2023-02-17T14:16:33.965Z,36.65
2023-02-17T14:19:49.296Z,30.25
2023-02-17T14:23:04.396Z,34.88
2023-02-17T14:26:12.886Z,30.00
2023-02-17T14:29:18.541Z,27.98
2023-02-17T14:32:30.692Z,30.92
2023-02-17T14:35:39.803Z,34.20
2023-02-17T14:38:45.714Z,29.40
2023-02-17T14:41:51.070Z,29.67
2023-02-17T14:44:56.627Z,33.63
2023-02-17T14:48:02.173Z,26.27
2023-02-17T14:51:14.509Z,28.92
2023-02-17T14:54:20.827Z,28.95
2023-02-17T14:57:29.331Z,24.58
2023-02-17T15:00:34.660Z,28.50
2023-02-17T15:03:40.271Z,29.30
2023-02-17T15:06:50.935Z,29.45
2023-02-17T15:09:56.438Z,29.55
2023-02-17T15:13:01.842Z,31.63
2023-02-17T15:16:08.695Z,30.15
2023-02-17T15:19:15.211Z,27.92
2023-02-17T15:22:24.649Z,31.95
2023-02-17T15:25:38.813Z,30.65
2023-02-17T15:28:44.316Z,29.17
2023-02-17T15:31:50.298Z,32.72
2023-02-17T15:34:55.853Z,27.58
2023-02-17T15:38:03.822Z,26.83
2023-02-17T15:41:14.332Z,29.70
2023-02-17T15:44:20.964Z,30.38
2023-02-17T15:47:27.318Z,28.98
2023-02-17T15:50:32.924Z,25.13
2023-02-17T15:53:40.995Z,24.40
2023-02-17T15:56:48.595Z,26.35
2023-02-17T15:59:55.326Z,23.50
2023-02-17T16:03:01.141Z,25.58
2023-02-17T16:06:06.929Z,24.10
2023-02-17T16:09:15.056Z,29.05
2023-02-17T16:12:27.356Z,25.45
2023-02-17T16:15:34.133Z,23.45
2023-02-17T16:18:39.706Z,23.52
2023-02-17T16:21:45.032Z,26.85
2023-02-17T16:24:53.355Z,27.48
2023-02-17T16:27:59.161Z,27.33
2023-02-17T16:31:04.660Z,29.75
2023-02-17T16:34:10.070Z,26.45
2023-02-17T16:37:17.331Z,27.73
2023-02-17T16:40:26.357Z,25.95
2023-02-17T16:43:31.851Z,28.50
2023-02-17T16:46:39.668Z,29.35
2023-02-17T16:49:47.669Z,25.90
2023-02-17T16:52:52.972Z,29.13
2023-02-17T16:56:01.020Z,29.35
2023-02-17T16:59:06.459Z,30.23
2023-02-17T17:02:13.661Z,30.02
2023-02-17T17:05:19.893Z,31.55
2023-02-17T17:08:25.493Z,29.52
2023-02-17T17:11:34.180Z,32.13
2023-02-17T17:14:39.716Z,28.17
2023-02-17T17:17:46.170Z,28.80
2023-02-17T17:20:52.112Z,32.95
2023-02-17T17:23:57.733Z,31.95
2023-02-17T17:27:05.912Z,31.17
2023-02-17T17:33:16.574Z,32.97
2023-02-17T17:36:25.266Z,31.58
2023-02-17T17:39:30.829Z,32.55
2023-02-17T17:42:39.322Z,26.25
2023-02-17T17:48:49.564Z,34.53
2023-02-17T17:51:55.149Z,29.17
2023-02-17T17:55:00.600Z,26.27
2023-02-17T17:58:08.533Z,24.15
2023-02-17T18:01:14.412Z,25.08
2023-02-17T18:04:20.002Z,30.15
2023-02-17T18:07:25.294Z,26.27
2023-02-17T18:10:31.185Z,25.55
2023-02-17T18:13:40.226Z,29.02
2023-02-17T18:16:46.264Z,28.33
2023-02-17T18:19:54.752Z,26.95
2023-02-17T18:26:05.660Z,31.58
2023-02-17T18:29:14.264Z,27.35
2023-02-17T18:32:22.242Z,29.88
2023-02-17T18:35:28.016Z,31.83
2023-02-17T18:38:33.732Z,30.15
2023-02-17T18:41:38.774Z,33.53
2023-02-17T18:44:46.713Z,30.50
2023-02-17T18:47:52.388Z,31.95
2023-02-17T18:50:57.585Z,32.63
2023-02-17T18:54:03.657Z,31.77
2023-02-17T18:57:09.007Z,33.40
2023-02-17T19:00:18.253Z,33.22
2023-02-17T19:03:23.590Z,33.70
2023-02-17T19:06:30.201Z,32.22
2023-02-17T19:09:35.835Z,29.25
2023-02-17T19:12:41.268Z,31.20
2023-02-17T19:15:49.045Z,36.47
2023-02-17T19:18:54.697Z,32.05
2023-02-17T19:22:00.154Z,39.72
2023-02-17T19:25:05.920Z,40.25
2023-02-17T19:28:11.553Z,33.35
2023-02-17T19:31:20.707Z,31.58
2023-02-17T19:34:26.224Z,33.60
2023-02-17T19:37:31.988Z,29.10
2023-02-17T19:40:37.928Z,32.28
2023-02-17T19:43:43.747Z,32.58
2023-02-17T19:46:51.749Z,33.33
2023-02-17T19:49:57.653Z,33.08
2023-02-17T19:53:03.043Z,35.53
2023-02-17T19:56:13.017Z,34.28
2023-02-17T19:59:18.671Z,37.88
2023-02-17T20:02:27.205Z,30.55
2023-02-17T20:05:32.369Z,40.08
2023-02-17T20:08:38.037Z,34.33
2023-02-17T20:11:43.364Z,35.50
2023-02-17T20:14:48.989Z,37.08
2023-02-17T20:17:56.661Z,34.03
2023-02-17T20:21:02.341Z,38.20
2023-02-17T20:24:07.593Z,32.25
2023-02-17T20:27:13.281Z,36.72
2023-02-17T20:30:18.817Z,35.65
2023-02-17T20:33:27.221Z,40.20
2023-02-17T20:36:32.995Z,32.03
2023-02-17T20:39:38.929Z,38.30
2023-02-17T20:42:44.306Z,33.38
2023-02-17T20:45:50.502Z,32.05
2023-02-17T20:48:58.643Z,32.38
2023-02-17T20:52:06.119Z,33.95
2023-02-17T20:55:13.754Z,38.60
2023-02-17T20:58:19.701Z,32.22
2023-02-17T21:01:24.979Z,38.38
2023-02-17T21:04:33.156Z,31.63
2023-02-17T21:07:38.391Z,31.95
2023-02-17T21:10:43.566Z,37.17
2023-02-17T21:13:49.096Z,38.00
2023-02-17T21:16:54.493Z,32.95
2023-02-17T21:20:02.266Z,36.70
2023-02-17T21:23:09.341Z,31.13
2023-02-17T21:26:16.136Z,34.90
2023-02-17T21:29:21.513Z,35.28
2023-02-17T21:32:27.087Z,35.25
2023-02-17T21:35:35.062Z,38.03
2023-02-17T21:38:40.602Z,39.03
2023-02-17T21:41:46.756Z,49.47
2023-02-17T21:44:52.604Z,45.13
2023-02-17T21:47:58.412Z,40.80
2023-02-17T21:51:09.944Z,43.65
2023-02-17T21:54:15.543Z,48.60
2023-02-17T21:57:20.884Z,56.95
2023-02-17T22:00:26.160Z,57.15
2023-02-17T22:03:31.679Z,54.05
2023-02-17T22:06:41.012Z,63.15
2023-02-17T22:09:46.521Z,55.97
2023-02-17T22:12:53.060Z,56.88
2023-02-17T22:16:01.338Z,56.50
2023-02-17T22:19:07.963Z,48.50
2023-02-17T22:22:15.779Z,54.22
2023-02-17T22:28:26.595Z,62.55
2023-02-17T22:31:33.546Z,52.72
2023-02-17T22:34:39.338Z,53.72
2023-02-17T22:37:48.035Z,51.15
2023-02-17T22:40:53.504Z,53.40
2023-02-17T22:43:58.606Z,46.70
2023-02-17T22:47:04.259Z,60.42
2023-02-17T22:50:10.324Z,55.70
2023-02-17T22:53:18.104Z,49.88
2023-02-17T22:56:24.197Z,50.85
2023-02-17T22:59:29.413Z,52.05
2023-02-17T23:02:37.299Z,53.72
2023-02-17T23:05:43.161Z,45.70
2023-02-17T23:08:51.581Z,47.28
2023-02-17T23:11:58.556Z,50.03
2023-02-17T23:15:03.963Z,47.05
2023-02-17T23:18:11.029Z,48.00
2023-02-17T23:21:16.657Z,47.58
2023-02-17T23:24:25.624Z,44.83
2023-02-17T23:27:30.893Z,45.08
2023-02-17T23:30:36.700Z,41.92
2023-02-17T23:33:42.607Z,43.15
2023-02-17T23:36:49.068Z,34.22
2023-02-17T23:39:57.357Z,44.92
2023-02-17T23:43:03.147Z,37.25
2023-02-17T23:46:08.621Z,39.88
2023-02-17T23:49:15.550Z,36.15
2023-02-17T23:52:20.867Z,38.90
2023-02-17T23:55:29.002Z,35.72
